BUCK10 YAMB-YAMB
Flight info
| Callsign | BUCK10 |
|---|---|
| Flight time | 1h 2m |
| Altitude | 40000 |
| Route | TATEN DCT APAGI DCT ALDAR/N0389F200 W128 SANAD/N0451F400 DCT YWLM DCT WLM088025 DCT 321502S1524728E DCT SEMAJ DCT CG |
| Aircraft | F18S/M-SDGHITUY/LB1 |
Departure
| Time | 2026-04-27 06:29 |
|---|---|
| Airport | RAAF Base Amberley (YAMB) |
Arrival
| Time | 2026-04-27 07:32 |
|---|---|
| Airport | RAAF Base Amberley (YAMB) |
| Time | Latitude | Longitude | Altitude | Speed | Heading |
|---|---|---|---|---|---|
| 2026-04-27 06:20 | -27.63171 | 152.70510 | 95 ft | 0 kts | 129° |
| 2026-04-27 06:27 | -27.63172 | 152.70512 | 95 ft | 2 kts | 128° |
| 2026-04-27 06:27 | -27.63192 | 152.70551 | 97 ft | 11 kts | 93° |
| 2026-04-27 06:27 | -27.63170 | 152.70668 | 93 ft | 15 kts | 129° |
| 2026-04-27 06:27 | -27.63159 | 152.70736 | 91 ft | 13 kts | 21° |
| 2026-04-27 06:28 | -27.63040 | 152.70691 | 95 ft | 24 kts | 338° |
| 2026-04-27 06:28 | -27.62852 | 152.70610 | 92 ft | 35 kts | 338° |
| 2026-04-27 06:28 | -27.62594 | 152.70494 | 90 ft | 45 kts | 337° |
| 2026-04-27 06:28 | -27.62263 | 152.70376 | 88 ft | 51 kts | 6° |
| 2026-04-27 06:29 | -27.62203 | 152.70436 | 92 ft | 14 kts | 75° |
| 2026-04-27 06:29 | -27.62227 | 152.70552 | 91 ft | 27 kts | 151° |
| 2026-04-27 06:29 | -27.62973 | 152.70877 | 113 ft | 213 kts | 158° |
| 2026-04-27 06:29 | -27.64802 | 152.71649 | 1720 ft | 157 kts | 160° |
| 2026-04-27 06:30 | -27.65816 | 152.72003 | 8748 ft | 163 kts | 159° |
| 2026-04-27 06:30 | -27.67330 | 152.72553 | 11400 ft | 325 kts | 160° |
| 2026-04-27 06:30 | -27.69870 | 152.72713 | 11324 ft | 382 kts | 189° |
| 2026-04-27 06:30 | -27.72252 | 152.71405 | 11224 ft | 386 kts | 216° |
| 2026-04-27 06:31 | -27.73874 | 152.69039 | 11456 ft | 380 kts | 242° |
| 2026-04-27 06:31 | -27.74592 | 152.66181 | 11459 ft | 383 kts | 262° |
| 2026-04-27 06:31 | -27.74385 | 152.63151 | 11160 ft | 392 kts | 283° |
| 2026-04-27 06:31 | -27.73270 | 152.60373 | 11220 ft | 388 kts | 303° |
| 2026-04-27 06:32 | -27.71479 | 152.58118 | 11219 ft | 386 kts | 320° |
| 2026-04-27 06:32 | -27.69215 | 152.56579 | 11163 ft | 385 kts | 338° |
| 2026-04-27 06:32 | -27.66629 | 152.55853 | 11089 ft | 383 kts | 356° |
| 2026-04-27 06:32 | -27.63998 | 152.56034 | 11084 ft | 378 kts | 13° |
| 2026-04-27 06:33 | -27.61569 | 152.57087 | 11086 ft | 373 kts | 31° |
| 2026-04-27 06:33 | -27.59565 | 152.58900 | 11082 ft | 368 kts | 49° |
| 2026-04-27 06:33 | -27.58174 | 152.61284 | 11080 ft | 364 kts | 66° |
| 2026-04-27 06:33 | -27.57409 | 152.63989 | 11096 ft | 362 kts | 76° |
| 2026-04-27 06:34 | -27.56963 | 152.65797 | 11102 ft | 362 kts | 76° |
| 2026-04-27 06:34 | -27.56296 | 152.68533 | 11110 ft | 362 kts | 76° |
| 2026-04-27 06:34 | -27.55640 | 152.71268 | 11106 ft | 362 kts | 77° |
| 2026-04-27 06:34 | -27.55090 | 152.74030 | 11172 ft | 360 kts | 79° |
| 2026-04-27 06:35 | -27.54595 | 152.76846 | 11186 ft | 378 kts | 81° |
| 2026-04-27 06:35 | -27.54116 | 152.79746 | 12368 ft | 364 kts | 81° |
| 2026-04-27 06:35 | -27.53602 | 152.82936 | 13763 ft | 466 kts | 81° |
| 2026-04-27 06:35 | -27.53007 | 152.86802 | 16127 ft | 539 kts | 81° |
| 2026-04-27 06:36 | -27.52346 | 152.91248 | 18697 ft | 606 kts | 81° |
| 2026-04-27 06:36 | -27.52204 | 152.96128 | 21021 ft | 661 kts | 94° |
| 2026-04-27 06:36 | -27.52826 | 153.01507 | 23627 ft | 729 kts | 98° |
| 2026-04-27 06:36 | -27.53735 | 153.07512 | 25162 ft | 833 kts | 99° |
| 2026-04-27 06:37 | -27.54840 | 153.14161 | 26273 ft | 879 kts | 101° |
| 2026-04-27 06:37 | -27.55946 | 153.20474 | 28658 ft | 739 kts | 101° |
| 2026-04-27 06:37 | -27.56891 | 153.25748 | 28810 ft | 641 kts | 101° |
| 2026-04-27 06:37 | -27.57739 | 153.30401 | 28982 ft | 577 kts | 101° |
| 2026-04-27 06:38 | -27.58523 | 153.34670 | 28990 ft | 536 kts | 101° |
| 2026-04-27 06:38 | -27.59260 | 153.38662 | 28986 ft | 505 kts | 101° |
| 2026-04-27 06:38 | -27.59962 | 153.42457 | 28987 ft | 487 kts | 101° |
| 2026-04-27 06:38 | -27.60647 | 153.46157 | 28982 ft | 477 kts | 101° |
| 2026-04-27 06:39 | -27.61977 | 153.53347 | 28979 ft | 461 kts | 101° |
| 2026-04-27 06:39 | -27.63266 | 153.60297 | 28981 ft | 452 kts | 101° |
| 2026-04-27 06:40 | -27.65005 | 153.66988 | 28924 ft | 443 kts | 129° |
| 2026-04-27 06:40 | -27.67526 | 153.68987 | 27450 ft | 459 kts | 161° |
| 2026-04-27 06:40 | -27.70772 | 153.69681 | 26392 ft | 474 kts | 174° |
| 2026-04-27 06:41 | -27.74012 | 153.70095 | 26529 ft | 463 kts | 174° |
| 2026-04-27 06:41 | -27.77193 | 153.70501 | 26480 ft | 456 kts | 174° |
| 2026-04-27 06:41 | -27.80301 | 153.70907 | 26637 ft | 447 kts | 174° |
| 2026-04-27 06:41 | -27.83374 | 153.71313 | 26641 ft | 443 kts | 174° |
| 2026-04-27 06:42 | -27.86426 | 153.71720 | 26640 ft | 439 kts | 174° |
| 2026-04-27 06:42 | -27.89451 | 153.72125 | 26641 ft | 437 kts | 174° |
| 2026-04-27 06:42 | -27.92458 | 153.72530 | 26641 ft | 434 kts | 174° |
| 2026-04-27 06:42 | -27.95454 | 153.72935 | 26642 ft | 433 kts | 174° |
| 2026-04-27 06:43 | -27.98436 | 153.73338 | 26640 ft | 431 kts | 174° |
| 2026-04-27 06:43 | -28.01409 | 153.73742 | 26639 ft | 430 kts | 174° |
| 2026-04-27 06:43 | -28.04385 | 153.74145 | 26637 ft | 429 kts | 174° |
| 2026-04-27 06:43 | -28.07352 | 153.74547 | 26635 ft | 428 kts | 174° |
| 2026-04-27 06:44 | -28.10310 | 153.74948 | 26634 ft | 428 kts | 174° |
| 2026-04-27 06:44 | -28.13264 | 153.75349 | 26633 ft | 427 kts | 174° |
| 2026-04-27 06:44 | -28.16180 | 153.75744 | 26631 ft | 427 kts | 174° |
| 2026-04-27 06:44 | -28.19124 | 153.76143 | 26630 ft | 426 kts | 174° |
| 2026-04-27 06:45 | -28.22070 | 153.76542 | 26626 ft | 426 kts | 174° |
| 2026-04-27 06:45 | -28.25010 | 153.76941 | 26624 ft | 426 kts | 174° |
| 2026-04-27 06:45 | -28.27974 | 153.77342 | 26036 ft | 435 kts | 174° |
| 2026-04-27 06:45 | -28.30905 | 153.77735 | 26153 ft | 424 kts | 174° |
| 2026-04-27 06:46 | -28.33776 | 153.78147 | 24925 ft | 413 kts | 173° |
| 2026-04-27 06:46 | -28.36609 | 153.78541 | 23617 ft | 407 kts | 173° |
| 2026-04-27 06:46 | -28.39374 | 153.78907 | 22483 ft | 392 kts | 173° |
| 2026-04-27 06:46 | -28.42035 | 153.79235 | 21370 ft | 379 kts | 173° |
| 2026-04-27 06:47 | -28.44686 | 153.79530 | 19750 ft | 384 kts | 173° |
| 2026-04-27 06:47 | -28.47306 | 153.79778 | 18487 ft | 380 kts | 173° |
| 2026-04-27 06:47 | -28.49912 | 153.79982 | 17420 ft | 368 kts | 174° |
| 2026-04-27 06:47 | -28.52421 | 153.80138 | 16469 ft | 357 kts | 178° |
| 2026-04-27 06:48 | -28.54786 | 153.79390 | 15542 ft | 355 kts | 210° |
| 2026-04-27 06:48 | -28.56280 | 153.77258 | 14727 ft | 349 kts | 249° |
| 2026-04-27 06:48 | -28.56206 | 153.74566 | 13544 ft | 349 kts | 296° |
| 2026-04-27 06:48 | -28.54379 | 153.72978 | 12503 ft | 334 kts | 350° |
| 2026-04-27 06:49 | -28.52093 | 153.72667 | 11705 ft | 328 kts | 356° |
| 2026-04-27 06:49 | -28.49843 | 153.72436 | 11101 ft | 321 kts | 356° |
| 2026-04-27 06:49 | -28.47659 | 153.72120 | 10655 ft | 312 kts | 354° |
| 2026-04-27 06:49 | -28.45535 | 153.71800 | 10243 ft | 305 kts | 354° |
| 2026-04-27 06:50 | -28.43464 | 153.71931 | 9572 ft | 299 kts | 24° |
| 2026-04-27 06:50 | -28.42062 | 153.73527 | 8917 ft | 287 kts | 69° |
| 2026-04-27 06:50 | -28.42040 | 153.75695 | 8336 ft | 276 kts | 112° |
| 2026-04-27 06:50 | -28.43288 | 153.77251 | 7674 ft | 273 kts | 154° |
| 2026-04-27 06:51 | -28.45135 | 153.77659 | 7214 ft | 268 kts | 170° |
| 2026-04-27 06:51 | -28.46996 | 153.77977 | 6573 ft | 272 kts | 172° |
| 2026-04-27 06:51 | -28.48856 | 153.78247 | 6165 ft | 266 kts | 172° |
| 2026-04-27 06:51 | -28.50665 | 153.78464 | 5876 ft | 259 kts | 173° |
| 2026-04-27 06:52 | -28.52454 | 153.78632 | 5448 ft | 258 kts | 175° |
| 2026-04-27 06:52 | -28.54249 | 153.78765 | 4983 ft | 259 kts | 175° |
| 2026-04-27 06:52 | -28.56033 | 153.78802 | 4615 ft | 256 kts | 187° |
| 2026-04-27 06:52 | -28.57545 | 153.77814 | 4054 ft | 269 kts | 223° |
| 2026-04-27 06:53 | -28.58376 | 153.75855 | 3289 ft | 287 kts | 255° |
| 2026-04-27 06:53 | -28.58552 | 153.73565 | 2696 ft | 289 kts | 263° |
| 2026-04-27 06:53 | -28.58702 | 153.71292 | 2194 ft | 285 kts | 263° |
| 2026-04-27 06:53 | -28.58865 | 153.69009 | 1438 ft | 291 kts | 263° |
| 2026-04-27 06:54 | -28.59025 | 153.66788 | 1357 ft | 273 kts | 263° |
| 2026-04-27 06:54 | -28.59177 | 153.64656 | 1400 ft | 301 kts | 262° |
| 2026-04-27 06:54 | -28.59420 | 153.62076 | 1473 ft | 308 kts | 261° |
| 2026-04-27 06:54 | -28.58867 | 153.60091 | 1234 ft | 274 kts | 331° |
| 2026-04-27 06:55 | -28.57345 | 153.60523 | 1171 ft | 224 kts | 63° |
| 2026-04-27 06:55 | -28.57609 | 153.61957 | 1082 ft | 186 kts | 142° |
| 2026-04-27 06:55 | -28.58921 | 153.62085 | 768 ft | 259 kts | 191° |
| 2026-04-27 06:55 | -28.61450 | 153.61500 | 730 ft | 435 kts | 188° |
| 2026-04-27 06:56 | -28.64197 | 153.61312 | 204 ft | 385 kts | 176° |
| 2026-04-27 06:56 | -28.66956 | 153.62902 | 1154 ft | 504 kts | 166° |
| 2026-04-27 06:56 | -28.69798 | 153.62322 | 1225 ft | 353 kts | 192° |
| 2026-04-27 06:56 | -28.72003 | 153.61690 | 1177 ft | 308 kts | 192° |
| 2026-04-27 06:57 | -28.74016 | 153.61096 | 1019 ft | 291 kts | 193° |
| 2026-04-27 06:57 | -28.75930 | 153.60522 | 913 ft | 278 kts | 193° |
| 2026-04-27 06:57 | -28.77759 | 153.60024 | 1087 ft | 257 kts | 183° |
| 2026-04-27 06:57 | -28.79451 | 153.60501 | 960 ft | 255 kts | 157° |
| 2026-04-27 06:58 | -28.81290 | 153.61217 | 713 ft | 321 kts | 164° |
| 2026-04-27 06:58 | -28.85822 | 153.61249 | 971 ft | 305 kts | 197° |
| 2026-04-27 06:58 | -28.87492 | 153.59964 | 885 ft | 288 kts | 230° |
| 2026-04-27 06:59 | -28.87876 | 153.57603 | 522 ft | 401 kts | 288° |
| 2026-04-27 06:59 | -28.86614 | 153.53879 | 1229 ft | 577 kts | 261° |
| 2026-04-27 06:59 | -28.88386 | 153.54317 | 2311 ft | 363 kts | 96° |
| 2026-04-27 06:59 | -28.88514 | 153.56943 | 2190 ft | 301 kts | 94° |
| 2026-04-27 07:00 | -28.88538 | 153.59165 | 2186 ft | 264 kts | 91° |
| 2026-04-27 07:00 | -28.88495 | 153.61161 | 2146 ft | 240 kts | 90° |
| 2026-04-27 07:00 | -28.88407 | 153.62971 | 2156 ft | 224 kts | 88° |
| 2026-04-27 07:00 | -28.88279 | 153.64693 | 2107 ft | 215 kts | 87° |
| 2026-04-27 07:01 | -28.88108 | 153.66398 | 1882 ft | 214 kts | 84° |
| 2026-04-27 07:01 | -28.87114 | 153.67817 | 1745 ft | 274 kts | 25° |
| 2026-04-27 07:01 | -28.85070 | 153.67716 | 2154 ft | 324 kts | 336° |
| 2026-04-27 07:01 | -28.84574 | 153.65333 | 2665 ft | 368 kts | 239° |
| 2026-04-27 07:02 | -28.85834 | 153.62794 | 1052 ft | 395 kts | 237° |
| 2026-04-27 07:02 | -28.87096 | 153.60231 | 767 ft | 348 kts | 242° |
| 2026-04-27 07:02 | -28.87523 | 153.57593 | 406 ft | 377 kts | 272° |
| 2026-04-27 07:02 | -28.86451 | 153.54062 | 984 ft | 475 kts | 292° |
| 2026-04-27 07:03 | -28.85721 | 153.51013 | 1880 ft | 351 kts | 272° |
| 2026-04-27 07:03 | -28.85645 | 153.48407 | 1946 ft | 311 kts | 272° |
| 2026-04-27 07:03 | -28.85063 | 153.46092 | 1835 ft | 309 kts | 293° |
| 2026-04-27 07:03 | -28.84208 | 153.43871 | 2050 ft | 304 kts | 284° |
| 2026-04-27 07:04 | -28.84063 | 153.41217 | 1658 ft | 409 kts | 273° |
| 2026-04-27 07:04 | -28.83321 | 153.38072 | 2232 ft | 418 kts | 289° |
| 2026-04-27 07:04 | -28.82417 | 153.35212 | 1360 ft | 363 kts | 286° |
| 2026-04-27 07:04 | -28.81775 | 153.32619 | 950 ft | 312 kts | 284° |
| 2026-04-27 07:05 | -28.81345 | 153.30356 | 782 ft | 276 kts | 262° |
| 2026-04-27 07:05 | -28.81437 | 153.28229 | 248 ft | 310 kts | 281° |
| 2026-04-27 07:05 | -28.80991 | 153.25411 | 2577 ft | 401 kts | 279° |
| 2026-04-27 07:05 | -28.80543 | 153.22682 | 2758 ft | 306 kts | 279° |
| 2026-04-27 07:06 | -28.80243 | 153.20527 | 2909 ft | 250 kts | 276° |
| 2026-04-27 07:06 | -28.80257 | 153.18704 | 2918 ft | 221 kts | 242° |
| 2026-04-27 07:06 | -28.81080 | 153.17157 | 2975 ft | 233 kts | 234° |
| 2026-04-27 07:06 | -28.81998 | 153.15548 | 2969 ft | 248 kts | 232° |
| 2026-04-27 07:07 | -28.83005 | 153.13962 | 3191 ft | 250 kts | 229° |
| 2026-04-27 07:07 | -28.84105 | 153.12397 | 3104 ft | 263 kts | 227° |
| 2026-04-27 07:07 | -28.85290 | 153.10779 | 3203 ft | 265 kts | 227° |
| 2026-04-27 07:07 | -28.86412 | 153.09079 | 2452 ft | 273 kts | 236° |
| 2026-04-27 07:08 | -28.86867 | 153.06906 | 980 ft | 288 kts | 271° |
| 2026-04-27 07:08 | -28.86394 | 153.04248 | 615 ft | 442 kts | 282° |
| 2026-04-27 07:08 | -28.84718 | 153.04488 | 1560 ft | 448 kts | 102° |
| 2026-04-27 07:08 | -28.86434 | 153.07197 | 1816 ft | 413 kts | 129° |
| 2026-04-27 07:09 | -28.88217 | 153.09747 | 1741 ft | 412 kts | 128° |
| 2026-04-27 07:09 | -28.90001 | 153.12266 | 2113 ft | 399 kts | 129° |
| 2026-04-27 07:09 | -28.91733 | 153.14646 | 2908 ft | 383 kts | 129° |
| 2026-04-27 07:09 | -28.93455 | 153.16972 | 3112 ft | 387 kts | 130° |
| 2026-04-27 07:10 | -28.95214 | 153.19359 | 2946 ft | 396 kts | 129° |
| 2026-04-27 07:10 | -28.96944 | 153.21786 | 3113 ft | 394 kts | 128° |
| 2026-04-27 07:10 | -28.98618 | 153.24250 | 3392 ft | 390 kts | 127° |
| 2026-04-27 07:10 | -29.00199 | 153.26701 | 3673 ft | 388 kts | 126° |
| 2026-04-27 07:11 | -29.01752 | 153.29231 | 3745 ft | 391 kts | 124° |
| 2026-04-27 07:11 | -29.03275 | 153.31840 | 3693 ft | 396 kts | 123° |
| 2026-04-27 07:11 | -29.04751 | 153.34503 | 3772 ft | 396 kts | 122° |
| 2026-04-27 07:11 | -29.06166 | 153.37192 | 3897 ft | 396 kts | 121° |
| 2026-04-27 07:12 | -29.07579 | 153.39906 | 3898 ft | 398 kts | 121° |
| 2026-04-27 07:12 | -29.08991 | 153.42619 | 3943 ft | 398 kts | 121° |
| 2026-04-27 07:12 | -29.10414 | 153.45349 | 3977 ft | 399 kts | 121° |
| 2026-04-27 07:12 | -29.11833 | 153.48089 | 3939 ft | 401 kts | 121° |
| 2026-04-27 07:13 | -29.13242 | 153.50837 | 3979 ft | 401 kts | 121° |
| 2026-04-27 07:13 | -29.13972 | 153.53720 | 5240 ft | 408 kts | 58° |
| 2026-04-27 07:13 | -29.11020 | 153.55002 | 8374 ft | 540 kts | 2° |
| 2026-04-27 07:13 | -29.07099 | 153.53658 | 11615 ft | 612 kts | 337° |
| 2026-04-27 07:14 | -29.03539 | 153.51499 | 15632 ft | 505 kts | 332° |
| 2026-04-27 07:14 | -29.00756 | 153.49759 | 15826 ft | 430 kts | 333° |
| 2026-04-27 07:14 | -28.98201 | 153.48159 | 15829 ft | 414 kts | 333° |
| 2026-04-27 07:14 | -28.95646 | 153.46561 | 15834 ft | 422 kts | 333° |
| 2026-04-27 07:15 | -28.93044 | 153.44936 | 15831 ft | 429 kts | 333° |
| 2026-04-27 07:15 | -28.90409 | 153.43292 | 15829 ft | 434 kts | 333° |
| 2026-04-27 07:15 | -28.87739 | 153.41626 | 15837 ft | 438 kts | 333° |
| 2026-04-27 07:15 | -28.85053 | 153.39951 | 15834 ft | 441 kts | 333° |
| 2026-04-27 07:16 | -28.82359 | 153.38271 | 15834 ft | 442 kts | 333° |
| 2026-04-27 07:16 | -28.79657 | 153.36585 | 15838 ft | 444 kts | 333° |
| 2026-04-27 07:16 | -28.76976 | 153.34910 | 15831 ft | 445 kts | 333° |
| 2026-04-27 07:16 | -28.74263 | 153.33216 | 15829 ft | 445 kts | 333° |
| 2026-04-27 07:17 | -28.71542 | 153.31516 | 15833 ft | 446 kts | 333° |
| 2026-04-27 07:17 | -28.68819 | 153.29817 | 15830 ft | 446 kts | 333° |
| 2026-04-27 07:17 | -28.66153 | 153.27993 | 15831 ft | 449 kts | 329° |
| 2026-04-27 07:17 | -28.63507 | 153.26015 | 15836 ft | 459 kts | 327° |
| 2026-04-27 07:18 | -28.60839 | 153.23965 | 15837 ft | 466 kts | 327° |
| 2026-04-27 07:18 | -28.58143 | 153.21872 | 15839 ft | 471 kts | 327° |
| 2026-04-27 07:18 | -28.55435 | 153.19760 | 15839 ft | 474 kts | 327° |
| 2026-04-27 07:18 | -28.52702 | 153.17624 | 15840 ft | 477 kts | 327° |
| 2026-04-27 07:19 | -28.50001 | 153.15508 | 15835 ft | 479 kts | 326° |
| 2026-04-27 07:19 | -28.47254 | 153.13355 | 15825 ft | 480 kts | 326° |
| 2026-04-27 07:19 | -28.44507 | 153.11200 | 15835 ft | 481 kts | 326° |
| 2026-04-27 07:19 | -28.41748 | 153.09033 | 15828 ft | 481 kts | 326° |
| 2026-04-27 07:20 | -28.38994 | 153.06867 | 15833 ft | 482 kts | 326° |
| 2026-04-27 07:20 | -28.36235 | 153.04697 | 15828 ft | 482 kts | 326° |
| 2026-04-27 07:20 | -28.33463 | 153.02558 | 15827 ft | 481 kts | 328° |
| 2026-04-27 07:20 | -28.30603 | 153.00580 | 15829 ft | 482 kts | 330° |
| 2026-04-27 07:21 | -28.27712 | 152.98655 | 15829 ft | 482 kts | 331° |
| 2026-04-27 07:21 | -28.24688 | 152.96677 | 15832 ft | 557 kts | 331° |
| 2026-04-27 07:21 | -28.21266 | 152.94465 | 15840 ft | 538 kts | 331° |
| 2026-04-27 07:21 | -28.18103 | 152.92422 | 15833 ft | 513 kts | 331° |
| 2026-04-27 07:22 | -28.15084 | 152.90475 | 15831 ft | 497 kts | 331° |
| 2026-04-27 07:22 | -28.12111 | 152.88560 | 15821 ft | 487 kts | 331° |
| 2026-04-27 07:22 | -28.09189 | 152.86679 | 15816 ft | 479 kts | 331° |
| 2026-04-27 07:22 | -28.06304 | 152.84823 | 15809 ft | 474 kts | 331° |
| 2026-04-27 07:23 | -28.03443 | 152.82982 | 15806 ft | 471 kts | 331° |
| 2026-04-27 07:23 | -28.01158 | 152.81548 | 12135 ft | 109 kts | 334° |
| 2026-04-27 07:23 | -27.98481 | 152.80054 | 4732 ft | 584 kts | 335° |
| 2026-04-27 07:23 | -27.94987 | 152.78176 | 4650 ft | 535 kts | 335° |
| 2026-04-27 07:24 | -27.91594 | 152.76410 | 3856 ft | 581 kts | 338° |
| 2026-04-27 07:24 | -27.89057 | 152.75195 | 4284 ft | 678 kts | 338° |
| 2026-04-27 07:24 | -27.87380 | 152.74399 | 4910 ft | 595 kts | 338° |
| 2026-04-27 07:24 | -27.84216 | 152.72886 | 4524 ft | 418 kts | 338° |
| 2026-04-27 07:25 | -27.81752 | 152.71684 | 3794 ft | 381 kts | 333° |
| 2026-04-27 07:25 | -27.80289 | 152.70290 | 3836 ft | 482 kts | 316° |
| 2026-04-27 07:25 | -27.77809 | 152.67391 | 4014 ft | 493 kts | 314° |
| 2026-04-27 07:25 | -27.74799 | 152.63860 | 4001 ft | 457 kts | 314° |
| 2026-04-27 07:26 | -27.72629 | 152.61156 | 3996 ft | 473 kts | 311° |
| 2026-04-27 07:26 | -27.70474 | 152.58289 | 4145 ft | 485 kts | 310° |
| 2026-04-27 07:26 | -27.68282 | 152.55341 | 4504 ft | 494 kts | 310° |
| 2026-04-27 07:26 | -27.66059 | 152.52365 | 4954 ft | 496 kts | 313° |
| 2026-04-27 07:27 | -27.62926 | 152.51193 | 4772 ft | 493 kts | 13° |
| 2026-04-27 07:27 | -27.61034 | 152.52550 | 4876 ft | 481 kts | 46° |
| 2026-04-27 07:27 | -27.58668 | 152.55203 | 4990 ft | 483 kts | 46° |
| 2026-04-27 07:27 | -27.56315 | 152.57757 | 4622 ft | 442 kts | 46° |
| 2026-04-27 07:28 | -27.54200 | 152.60058 | 3730 ft | 411 kts | 47° |
| 2026-04-27 07:28 | -27.52212 | 152.62292 | 2836 ft | 394 kts | 48° |
| 2026-04-27 07:28 | -27.50988 | 152.64776 | 2106 ft | 399 kts | 105° |
| 2026-04-27 07:28 | -27.53712 | 152.67047 | 1926 ft | 575 kts | 155° |
| 2026-04-27 07:29 | -27.56925 | 152.68400 | 1336 ft | 434 kts | 160° |
| 2026-04-27 07:29 | -27.59546 | 152.69474 | 971 ft | 374 kts | 159° |
| 2026-04-27 07:29 | -27.62041 | 152.70536 | 711 ft | 418 kts | 159° |
| 2026-04-27 07:29 | -27.64751 | 152.71671 | 604 ft | 401 kts | 179° |
| 2026-04-27 07:30 | -27.64358 | 152.69775 | 880 ft | 308 kts | 337° |
| 2026-04-27 07:30 | -27.62654 | 152.68792 | 909 ft | 244 kts | 335° |
| 2026-04-27 07:30 | -27.61255 | 152.68134 | 1158 ft | 177 kts | 358° |
| 2026-04-27 07:30 | -27.60488 | 152.68824 | 776 ft | 162 kts | 77° |
| 2026-04-27 07:31 | -27.60796 | 152.69910 | 552 ft | 144 kts | 152° |
| 2026-04-27 07:31 | -27.61692 | 152.70316 | 145 ft | 127 kts | 156° |
| 2026-04-27 07:31 | -27.62410 | 152.70632 | 92 ft | 95 kts | 158° |
| 2026-04-27 07:31 | -27.62924 | 152.70857 | 92 ft | 70 kts | 159° |
| 2026-04-27 07:32 | -27.63352 | 152.71045 | 90 ft | 61 kts | 158° |
| 2026-04-27 07:32 | -27.63722 | 152.71206 | 97 ft | 53 kts | 158° |
| 2026-04-27 07:32 | -27.64034 | 152.71341 | 98 ft | 37 kts | 159° |
| 2026-04-27 07:32 | -27.64166 | 152.71246 | 100 ft | 29 kts | 238° |
| 2026-04-27 07:33 | -27.64045 | 152.71132 | 99 ft | 25 kts | 339° |
| 2026-04-27 07:33 | -27.63884 | 152.71062 | 99 ft | 25 kts | 339° |
| 2026-04-27 07:33 | -27.63718 | 152.70995 | 94 ft | 26 kts | 342° |
| 2026-04-27 07:33 | -27.63557 | 152.70920 | 94 ft | 24 kts | 342° |
| 2026-04-27 07:34 | -27.63399 | 152.70849 | 92 ft | 25 kts | 339° |
| 2026-04-27 07:34 | -27.63243 | 152.70780 | 94 ft | 24 kts | 338° |
| 2026-04-27 07:34 | -27.63178 | 152.70678 | 93 ft | 14 kts | 298° |
| 2026-04-27 07:34 | -27.63146 | 152.70614 | 95 ft | 0 kts | 310° |